Time;durP1;ratioP1;P1;durP2;ratioP2;P2;SDS_P1;SDS_P2;PMS_P1;PMS_P2;Temp;Humidity;BMP_temperature;BMP_pressure;BME280_temperature;BME280_humidity;BME280_pressure;Samples;Min_cycle;Max_cycle;Signal;HPM_P1;HPM_P2
2024/03/11 00:00:38;;;;;;;20.95;10.23;;;;;;;;;;5062453;28;20482;-67
2024/03/11 00:03:27;;;;;;;30.95;10.30;;;;;;;;;;5065557;28;20044;-67
2024/03/11 00:06:13;;;;;;;25.08;9.80;;;;;;;;;;5060809;28;20024;-67
2024/03/11 00:08:59;;;;;;;31.45;10.55;;;;;;;;;;5074656;28;20028;-67
2024/03/11 00:11:57;;;;;;;27.48;9.60;;;;;;;;;;5072776;28;20107;-67
2024/03/11 00:14:47;;;;;;;28.45;10.50;;;;;;;;;;5075061;28;20482;-67
2024/03/11 00:17:33;;;;;;;26.33;9.32;;;;;;;;;;5072867;28;20033;-68
2024/03/11 00:20:22;;;;;;;26.50;9.02;;;;;;;;;;5069751;28;20040;-67
2024/03/11 00:23:08;;;;;;;26.75;9.82;;;;;;;;;;5058379;28;20036;-67
2024/03/11 00:25:53;;;;;;;24.48;10.18;;;;;;;;;;5072233;28;20494;-66
2024/03/11 00:28:40;;;;;;;27.98;11.05;;;;;;;;;;5060471;28;20025;-67
2024/03/11 00:31:29;;;;;;;33.00;10.55;;;;;;;;;;5064657;28;20028;-67
2024/03/11 00:34:15;;;;;;;24.27;9.50;;;;;;;;;;5072005;28;20024;-67
2024/03/11 00:37:00;;;;;;;22.90;10.07;;;;;;;;;;5057724;28;20028;-67
2024/03/11 00:39:46;;;;;;;25.65;9.25;;;;;;;;;;5053658;28;20028;-67
2024/03/11 00:42:35;;;;;;;25.60;9.25;;;;;;;;;;5059490;28;20517;-67
2024/03/11 00:45:23;;;;;;;28.80;9.60;;;;;;;;;;5073281;28;20067;-67
2024/03/11 00:48:11;;;;;;;23.60;10.40;;;;;;;;;;5058674;28;20025;-67
2024/03/11 00:50:57;;;;;;;29.55;10.63;;;;;;;;;;5056317;28;20029;-68
2024/03/11 00:53:43;;;;;;;27.13;10.45;;;;;;;;;;5053757;28;20406;-67
2024/03/11 00:56:28;;;;;;;28.23;10.65;;;;;;;;;;5037421;28;20402;-68
2024/03/11 00:59:14;;;;;;;25.15;8.93;;;;;;;;;;5072131;28;20060;-67
2024/03/11 01:02:00;;;;;;;26.85;10.13;;;;;;;;;;5070333;28;20085;-67
2024/03/11 01:04:46;;;;;;;26.42;9.95;;;;;;;;;;5071424;28;20024;-67
2024/03/11 01:07:35;;;;;;;20.98;8.65;;;;;;;;;;5071109;28;20079;-67
2024/03/11 01:10:22;;;;;;;22.00;9.23;;;;;;;;;;5058223;28;20048;-67
2024/03/11 01:13:08;;;;;;;27.92;11.07;;;;;;;;;;5052368;28;20052;-67
2024/03/11 01:15:54;;;;;;;26.67;9.30;;;;;;;;;;5071359;28;20020;-66
2024/03/11 01:18:40;;;;;;;24.00;10.60;;;;;;;;;;5072930;28;20113;-67
2024/03/11 01:21:25;;;;;;;25.48;9.23;;;;;;;;;;5071515;28;20117;-67
2024/03/11 01:24:11;;;;;;;29.55;10.18;;;;;;;;;;5071249;28;20086;-67
2024/03/11 01:26:57;;;;;;;20.63;9.05;;;;;;;;;;5071174;28;20016;-67
2024/03/11 01:29:42;;;;;;;22.50;10.30;;;;;;;;;;5069761;28;20070;-67
2024/03/11 01:32:28;;;;;;;19.27;9.32;;;;;;;;;;5068402;28;20021;-67
2024/03/11 01:35:14;;;;;;;27.52;11.05;;;;;;;;;;5056974;28;20025;-67
2024/03/11 01:38:00;;;;;;;23.77;8.30;;;;;;;;;;5052663;28;20025;-67
2024/03/11 01:40:48;;;;;;;25.10;8.90;;;;;;;;;;5065804;28;20016;-66
2024/03/11 01:43:35;;;;;;;20.55;9.27;;;;;;;;;;5070917;28;20029;-67
2024/03/11 01:46:21;;;;;;;27.92;9.82;;;;;;;;;;5072760;28;20108;-67
2024/03/11 01:49:07;;;;;;;22.13;9.90;;;;;;;;;;5057367;28;20028;-66
2024/03/11 01:51:52;;;;;;;29.67;9.50;;;;;;;;;;5056559;28;20032;-67
2024/03/11 01:54:38;;;;;;;24.50;9.63;;;;;;;;;;5062440;28;20099;-67
2024/03/11 01:57:24;;;;;;;26.63;9.93;;;;;;;;;;5051236;28;20123;-67
2024/03/11 02:00:10;;;;;;;30.95;9.90;;;;;;;;;;5052905;28;20074;-67
2024/03/11 02:02:56;;;;;;;21.58;8.43;;;;;;;;;;5055099;28;20037;-67
2024/03/11 02:05:42;;;;;;;23.77;8.50;;;;;;;;;;5052646;28;20033;-67
2024/03/11 02:08:28;;;;;;;23.23;9.63;;;;;;;;;;5047142;28;20033;-67
2024/03/11 02:11:14;;;;;;;24.85;10.10;;;;;;;;;;5052282;28;20100;-67
2024/03/11 02:14:00;;;;;;;24.83;9.93;;;;;;;;;;5064503;28;20032;-67
2024/03/11 02:16:47;;;;;;;24.17;11.10;;;;;;;;;;5059131;28;20032;-67
2024/03/11 02:19:33;;;;;;;26.05;10.43;;;;;;;;;;5060257;28;20070;-67
2024/03/11 02:22:19;;;;;;;31.67;10.32;;;;;;;;;;5074517;28;20444;-67
2024/03/11 02:25:05;;;;;;;32.20;10.52;;;;;;;;;;5068179;28;20078;-67
2024/03/11 02:27:52;;;;;;;23.40;9.98;;;;;;;;;;5055441;28;20096;-67
2024/03/11 02:30:38;;;;;;;29.02;10.50;;;;;;;;;;5057415;28;20398;-68
2024/03/11 02:33:24;;;;;;;24.00;11.63;;;;;;;;;;5059433;28;20028;-67
2024/03/11 02:36:09;;;;;;;27.60;11.30;;;;;;;;;;5074126;28;20033;-67
2024/03/11 02:38:55;;;;;;;30.98;10.77;;;;;;;;;;5076155;28;20390;-67
2024/03/11 02:41:44;;;;;;;24.67;9.75;;;;;;;;;;5074294;28;20036;-67
2024/03/11 02:44:30;;;;;;;29.73;10.48;;;;;;;;;;5054986;28;20524;-67
2024/03/11 02:47:15;;;;;;;30.13;10.40;;;;;;;;;;5055268;28;20025;-67
2024/03/11 02:50:05;;;;;;;24.63;10.05;;;;;;;;;;5054930;28;20016;-67
2024/03/11 02:52:51;;;;;;;28.80;10.23;;;;;;;;;;5054691;28;20075;-67
2024/03/11 02:55:40;;;;;;;29.77;10.38;;;;;;;;;;5057021;28;20029;-66
2024/03/11 02:58:28;;;;;;;19.83;9.27;;;;;;;;;;5056979;28;20028;-67
2024/03/11 03:01:14;;;;;;;24.98;9.43;;;;;;;;;;5055587;28;20406;-67
2024/03/11 03:03:59;;;;;;;22.98;9.95;;;;;;;;;;5055267;28;20060;-66
2024/03/11 03:06:45;;;;;;;18.60;9.02;;;;;;;;;;5055146;28;20100;-66
2024/03/11 03:09:31;;;;;;;25.33;10.55;;;;;;;;;;5054728;28;20135;-67
2024/03/11 03:12:18;;;;;;;29.42;10.35;;;;;;;;;;5054664;28;20445;-67
2024/03/11 03:15:05;;;;;;;28.88;10.18;;;;;;;;;;5053923;28;20417;-66
2024/03/11 03:17:51;;;;;;;22.13;9.52;;;;;;;;;;5054807;28;20048;-66
2024/03/11 03:20:38;;;;;;;26.35;10.35;;;;;;;;;;5055980;28;20040;-67
2024/03/11 03:23:23;;;;;;;21.67;9.73;;;;;;;;;;5054028;28;20032;-66
2024/03/11 03:26:09;;;;;;;23.20;9.70;;;;;;;;;;5054691;28;20024;-66
2024/03/11 03:28:54;;;;;;;19.35;10.32;;;;;;;;;;5054276;28;20017;-66
2024/03/11 03:31:41;;;;;;;18.65;8.52;;;;;;;;;;5055018;28;20028;-66
2024/03/11 03:34:26;;;;;;;24.75;10.48;;;;;;;;;;5040227;28;20079;-66
2024/03/11 03:37:13;;;;;;;22.00;9.57;;;;;;;;;;5053626;28;20090;-66
2024/03/11 03:39:59;;;;;;;21.77;10.10;;;;;;;;;;5039894;28;20402;-66
2024/03/11 03:42:46;;;;;;;25.08;9.75;;;;;;;;;;5054338;28;20084;-66
2024/03/11 03:45:32;;;;;;;23.02;10.13;;;;;;;;;;5041158;28;20039;-67
2024/03/11 03:48:17;;;;;;;25.73;9.80;;;;;;;;;;5054279;28;20021;-66
2024/03/11 03:51:03;;;;;;;18.77;8.57;;;;;;;;;;5054750;28;20025;-66
2024/03/11 03:53:49;;;;;;;19.20;9.18;;;;;;;;;;5055768;28;20035;-66
2024/03/11 03:56:35;;;;;;;19.13;9.55;;;;;;;;;;5055054;28;20486;-66
2024/03/11 03:59:21;;;;;;;24.80;10.40;;;;;;;;;;5038260;28;20029;-66
2024/03/11 04:02:08;;;;;;;26.20;9.07;;;;;;;;;;5054360;28;20052;-66
2024/03/11 04:04:53;;;;;;;22.17;8.27;;;;;;;;;;5054860;28;20025;-67
2024/03/11 04:07:40;;;;;;;23.38;9.57;;;;;;;;;;5055209;28;20148;-66
2024/03/11 04:10:26;;;;;;;24.70;10.18;;;;;;;;;;5055267;28;20100;-66
2024/03/11 04:13:12;;;;;;;27.45;9.07;;;;;;;;;;5052638;28;20104;-66
2024/03/11 04:15:58;;;;;;;24.33;9.50;;;;;;;;;;5052458;28;20102;-66
2024/03/11 04:18:43;;;;;;;22.60;9.85;;;;;;;;;;5053247;28;20504;-66
2024/03/11 04:21:29;;;;;;;31.15;9.43;;;;;;;;;;5054292;28;20410;-66
2024/03/11 04:24:16;;;;;;;23.73;8.50;;;;;;;;;;5053391;28;20162;-66
2024/03/11 04:27:02;;;;;;;24.63;8.90;;;;;;;;;;5055197;28;20025;-66
2024/03/11 04:29:49;;;;;;;21.95;9.45;;;;;;;;;;5053361;28;20078;-67
2024/03/11 04:32:35;;;;;;;21.58;8.40;;;;;;;;;;5062078;28;20028;-67
2024/03/11 04:35:25;;;;;;;28.33;8.50;;;;;;;;;;5058542;28;20029;-67
2024/03/11 04:38:12;;;;;;;21.80;8.63;;;;;;;;;;5053975;28;20121;-67
2024/03/11 04:40:57;;;;;;;21.30;9.52;;;;;;;;;;5068815;28;20032;-67
2024/03/11 04:43:43;;;;;;;27.77;9.50;;;;;;;;;;5053625;28;20030;-66
2024/03/11 04:46:29;;;;;;;20.75;8.55;;;;;;;;;;5053941;28;20024;-67
2024/03/11 04:49:14;;;;;;;21.70;8.07;;;;;;;;;;5053682;28;20488;-66
2024/03/11 04:52:01;;;;;;;28.55;8.77;;;;;;;;;;5054117;28;20021;-66
2024/03/11 04:54:47;;;;;;;24.70;10.18;;;;;;;;;;5053460;28;20396;-66
2024/03/11 04:57:33;;;;;;;27.25;10.68;;;;;;;;;;5052570;28;20052;-67
2024/03/11 05:00:19;;;;;;;25.95;9.52;;;;;;;;;;5059009;28;20031;-67
2024/03/11 05:03:05;;;;;;;26.58;9.68;;;;;;;;;;5070988;28;20111;-67
2024/03/11 05:05:52;;;;;;;19.58;8.32;;;;;;;;;;5071287;28;20028;-67
2024/03/11 05:08:38;;;;;;;26.40;10.05;;;;;;;;;;5071708;28;20394;-66
2024/03/11 05:11:24;;;;;;;24.50;11.48;;;;;;;;;;5072372;28;20414;-67
2024/03/11 05:14:09;;;;;;;18.40;9.00;;;;;;;;;;5052097;28;20029;-66
2024/03/11 05:16:55;;;;;;;21.70;8.90;;;;;;;;;;5052606;28;20028;-67
2024/03/11 05:19:41;;;;;;;24.50;8.32;;;;;;;;;;5132996;23;20449;-71
2024/03/11 05:22:26;;;;;;;22.77;8.88;;;;;;;;;;5092165;28;20055;-71
2024/03/11 05:25:14;;;;;;;25.17;10.35;;;;;;;;;;5092479;28;20031;-71
2024/03/11 05:28:00;;;;;;;28.15;9.77;;;;;;;;;;5068055;28;20486;-71
2024/03/11 05:30:46;;;;;;;25.55;9.27;;;;;;;;;;5083475;28;20027;-71
2024/03/11 05:33:31;;;;;;;24.17;9.30;;;;;;;;;;5092109;28;20024;-71
2024/03/11 05:36:17;;;;;;;28.05;10.80;;;;;;;;;;5085624;28;20032;-71
2024/03/11 05:39:02;;;;;;;27.50;9.88;;;;;;;;;;5092256;28;20027;-71
2024/03/11 05:41:49;;;;;;;17.85;9.82;;;;;;;;;;5092112;28;20024;-71
2024/03/11 05:44:34;;;;;;;24.35;9.57;;;;;;;;;;5092822;28;20024;-71
2024/03/11 05:47:23;;;;;;;26.08;8.85;;;;;;;;;;5091327;28;20020;-71
2024/03/11 05:50:11;;;;;;;18.83;9.52;;;;;;;;;;5077556;28;20027;-71
2024/03/11 05:52:58;;;;;;;20.60;9.98;;;;;;;;;;5091987;28;20024;-71
2024/03/11 05:55:45;;;;;;;19.42;9.02;;;;;;;;;;5076030;28;20562;-71
2024/03/11 05:58:31;;;;;;;25.40;9.02;;;;;;;;;;5090109;28;20059;-71
2024/03/11 06:01:18;;;;;;;27.10;10.68;;;;;;;;;;5077580;28;20028;-71
2024/03/11 06:04:04;;;;;;;20.05;8.73;;;;;;;;;;5076984;28;20051;-71
2024/03/11 06:06:51;;;;;;;23.55;9.35;;;;;;;;;;5076964;28;20020;-71
2024/03/11 06:09:36;;;;;;;22.70;9.30;;;;;;;;;;5076961;28;20021;-71
2024/03/11 06:12:22;;;;;;;21.17;9.27;;;;;;;;;;5091790;28;20085;-71
2024/03/11 06:15:08;;;;;;;26.77;9.45;;;;;;;;;;5091864;28;20020;-71
2024/03/11 06:17:54;;;;;;;22.42;9.85;;;;;;;;;;5092098;28;20578;-71
2024/03/11 06:20:42;;;;;;;22.88;8.95;;;;;;;;;;5091369;28;20454;-70
2024/03/11 06:23:28;;;;;;;21.73;8.75;;;;;;;;;;5078887;28;20035;-71
2024/03/11 06:26:13;;;;;;;24.83;9.23;;;;;;;;;;5076308;28;20047;-71
2024/03/11 06:29:00;;;;;;;28.90;9.82;;;;;;;;;;5076644;28;20111;-71
2024/03/11 06:31:48;;;;;;;20.73;9.60;;;;;;;;;;5075399;28;20569;-71
2024/03/11 06:34:34;;;;;;;22.80;9.88;;;;;;;;;;5091161;28;20028;-71
2024/03/11 06:37:20;;;;;;;30.83;9.77;;;;;;;;;;5082107;28;20118;-71
2024/03/11 06:40:07;;;;;;;29.85;10.85;;;;;;;;;;5071435;28;20020;-71
2024/03/11 06:42:52;;;;;;;22.73;9.85;;;;;;;;;;5066152;28;20075;-71
2024/03/11 06:45:38;;;;;;;21.23;8.88;;;;;;;;;;5091402;28;20020;-71
2024/03/11 06:48:23;;;;;;;26.67;9.80;;;;;;;;;;5071550;28;20016;-71
2024/03/11 06:51:10;;;;;;;26.48;10.02;;;;;;;;;;5091517;28;20024;-70
2024/03/11 06:53:59;;;;;;;26.92;10.35;;;;;;;;;;5073325;28;20050;-71
2024/03/11 06:56:45;;;;;;;24.83;10.68;;;;;;;;;;5057465;28;20028;-71
2024/03/11 06:59:31;;;;;;;24.15;9.20;;;;;;;;;;5072754;28;20100;-71
2024/03/11 07:02:20;;;;;;;21.05;9.82;;;;;;;;;;5060543;28;20406;-71
2024/03/11 07:05:09;;;;;;;32.30;12.13;;;;;;;;;;5074605;28;20028;-71
2024/03/11 07:07:55;;;;;;;21.42;10.32;;;;;;;;;;5079394;28;20036;-71
2024/03/11 07:10:41;;;;;;;18.58;8.88;;;;;;;;;;5074916;28;20027;-71
2024/03/11 07:13:31;;;;;;;32.03;10.90;;;;;;;;;;5078619;28;20393;-71
2024/03/11 07:16:17;;;;;;;22.75;10.38;;;;;;;;;;5060116;28;20059;-71
2024/03/11 07:19:03;;;;;;;29.52;10.27;;;;;;;;;;5078782;28;20082;-71
2024/03/11 07:21:49;;;;;;;25.75;10.30;;;;;;;;;;5074977;28;20478;-71
2024/03/11 07:24:35;;;;;;;27.23;10.70;;;;;;;;;;5083408;28;20115;-71
2024/03/11 07:27:21;;;;;;;29.70;10.02;;;;;;;;;;5087633;28;20083;-71
2024/03/11 07:30:09;;;;;;;24.58;9.48;;;;;;;;;;5080745;28;20033;-71
2024/03/11 07:33:14;;;;;;;32.20;11.32;;;;;;;;;;5075679;28;20021;-71
2024/03/11 07:36:00;;;;;;;21.67;9.57;;;;;;;;;;5059593;28;20024;-71
2024/03/11 07:38:46;;;;;;;22.52;10.30;;;;;;;;;;5074441;28;20028;-71
2024/03/11 07:41:31;;;;;;;23.60;9.77;;;;;;;;;;5066452;28;20024;-71
2024/03/11 07:44:18;;;;;;;24.70;9.43;;;;;;;;;;5094427;28;20031;-71
2024/03/11 07:47:03;;;;;;;20.00;9.35;;;;;;;;;;5093688;28;20020;-71
2024/03/11 07:49:49;;;;;;;29.45;11.20;;;;;;;;;;5091878;28;20051;-71
2024/03/11 07:52:36;;;;;;;24.88;10.60;;;;;;;;;;5079375;28;20080;-71
2024/03/11 07:55:28;;;;;;;19.73;8.85;;;;;;;;;;5071584;28;20440;-70
2024/03/11 07:58:14;;;;;;;23.60;9.68;;;;;;;;;;5059480;28;20481;-71
2024/03/11 08:01:00;;;;;;;28.02;10.45;;;;;;;;;;5077323;28;20065;-70
2024/03/11 08:03:46;;;;;;;19.63;10.07;;;;;;;;;;5093999;28;20168;-71
2024/03/11 08:06:32;;;;;;;22.00;9.88;;;;;;;;;;5093728;28;20034;-71
2024/03/11 08:09:18;;;;;;;28.48;11.02;;;;;;;;;;5093500;28;20023;-71
2024/03/11 08:12:05;;;;;;;30.38;10.25;;;;;;;;;;5078169;28;20076;-71
2024/03/11 08:14:50;;;;;;;32.20;11.32;;;;;;;;;;5065487;28;20028;-71
2024/03/11 08:17:36;;;;;;;30.90;10.32;;;;;;;;;;5072965;28;20040;-71
2024/03/11 08:20:23;;;;;;;26.75;11.23;;;;;;;;;;5077468;28;20375;-71
2024/03/11 08:23:09;;;;;;;27.02;10.90;;;;;;;;;;5072548;28;20560;-71
2024/03/11 08:25:56;;;;;;;24.92;10.52;;;;;;;;;;5080414;28;20090;-71
2024/03/11 08:28:43;;;;;;;29.35;11.35;;;;;;;;;;5072946;28;20503;-71
2024/03/11 08:31:28;;;;;;;27.30;10.75;;;;;;;;;;5080218;28;20103;-71
2024/03/11 08:34:14;;;;;;;29.00;11.25;;;;;;;;;;5093052;28;20026;-71
2024/03/11 08:37:00;;;;;;;25.25;10.75;;;;;;;;;;5093393;28;20020;-71
2024/03/11 08:39:46;;;;;;;28.75;11.07;;;;;;;;;;5079554;28;20028;-71
2024/03/11 08:42:31;;;;;;;23.95;10.30;;;;;;;;;;5071241;28;20118;-71
2024/03/11 08:45:22;;;;;;;25.38;10.20;;;;;;;;;;5077235;28;20490;-71
2024/03/11 08:48:07;;;;;;;30.25;11.38;;;;;;;;;;5082657;28;20099;-71
2024/03/11 08:50:53;;;;;;;29.63;12.35;;;;;;;;;;5093002;28;20027;-71
2024/03/11 08:53:39;;;;;;;26.85;11.40;;;;;;;;;;5093051;28;20024;-71
2024/03/11 08:56:25;;;;;;;28.00;11.93;;;;;;;;;;5078289;28;20032;-71
2024/03/11 08:59:11;;;;;;;23.48;10.05;;;;;;;;;;5093027;28;20477;-71
2024/03/11 09:01:57;;;;;;;26.38;11.02;;;;;;;;;;5093872;28;20489;-71
2024/03/11 09:04:46;;;;;;;35.30;11.57;;;;;;;;;;5078441;28;20036;-71
2024/03/11 09:07:32;;;;;;;20.95;10.48;;;;;;;;;;5093082;28;20077;-71
2024/03/11 09:10:18;;;;;;;28.83;12.18;;;;;;;;;;5092558;28;20028;-71
2024/03/11 09:13:04;;;;;;;29.95;13.73;;;;;;;;;;5064956;28;20055;-71
2024/03/11 09:15:50;;;;;;;35.97;13.25;;;;;;;;;;5078489;28;20024;-71
2024/03/11 09:18:37;;;;;;;26.00;10.68;;;;;;;;;;5092760;28;20477;-71
2024/03/11 09:21:23;;;;;;;26.27;10.63;;;;;;;;;;5063772;28;20103;-71
2024/03/11 09:24:11;;;;;;;30.60;10.10;;;;;;;;;;5093434;28;20404;-71
2024/03/11 09:26:57;;;;;;;26.50;10.65;;;;;;;;;;5077834;28;20020;-71
2024/03/11 09:29:43;;;;;;;28.17;11.50;;;;;;;;;;5092840;28;20072;-71
2024/03/11 09:32:28;;;;;;;31.95;12.07;;;;;;;;;;5093146;28;20448;-71
2024/03/11 09:35:16;;;;;;;27.60;11.25;;;;;;;;;;5093280;28;20030;-71
2024/03/11 09:38:02;;;;;;;29.25;11.85;;;;;;;;;;5077678;28;20024;-71
2024/03/11 09:40:48;;;;;;;35.83;11.40;;;;;;;;;;5077451;28;20016;-71
2024/03/11 09:43:34;;;;;;;32.58;12.60;;;;;;;;;;5075745;28;20058;-71
2024/03/11 09:46:22;;;;;;;24.73;11.00;;;;;;;;;;5093373;28;20020;-71
2024/03/11 09:49:08;;;;;;;32.75;12.27;;;;;;;;;;5092236;28;20024;-71
2024/03/11 09:51:58;;;;;;;27.70;11.80;;;;;;;;;;5078322;28;20084;-71
2024/03/11 09:54:44;;;;;;;27.58;11.25;;;;;;;;;;5078148;28;20095;-70
2024/03/11 09:57:29;;;;;;;28.70;10.77;;;;;;;;;;5092993;28;20093;-71
2024/03/11 10:00:23;;;;;;;22.02;11.43;;;;;;;;;;5077659;28;20066;-71
2024/03/11 10:03:11;;;;;;;25.13;12.10;;;;;;;;;;5077779;28;20027;-71
2024/03/11 10:05:57;;;;;;;26.98;11.40;;;;;;;;;;5077964;28;20028;-71
2024/03/11 10:08:45;;;;;;;26.40;10.48;;;;;;;;;;5092559;28;20032;-71
2024/03/11 10:11:32;;;;;;;27.50;10.82;;;;;;;;;;5092417;28;20020;-71
2024/03/11 10:14:22;;;;;;;28.63;11.70;;;;;;;;;;5077780;28;20484;-71
2024/03/11 10:17:21;;;;;;;25.85;10.95;;;;;;;;;;5092141;28;20077;-71
2024/03/11 10:20:14;;;;;;;22.30;11.02;;;;;;;;;;5063737;28;20032;-71
2024/03/11 10:23:09;;;;;;;22.48;10.95;;;;;;;;;;5076363;28;20153;-72
2024/03/11 10:26:17;;;;;;;26.55;10.20;;;;;;;;;;5077307;28;20111;-71
2024/03/11 10:29:03;;;;;;;25.50;11.23;;;;;;;;;;5078597;28;20016;-71
2024/03/11 10:31:51;;;;;;;26.02;11.35;;;;;;;;;;5091604;28;20016;-71
2024/03/11 10:34:56;;;;;;;27.65;10.90;;;;;;;;;;5081888;28;20103;-71
2024/03/11 10:37:43;;;;;;;25.13;11.13;;;;;;;;;;5081701;28;20032;-71
2024/03/11 10:40:32;;;;;;;24.77;10.80;;;;;;;;;;5067630;28;20027;-71
2024/03/11 10:43:20;;;;;;;23.15;10.85;;;;;;;;;;5096338;28;20060;-71
2024/03/11 10:46:17;;;;;;;37.80;19.70;;;;;;;;;;5067363;28;20045;-71
2024/03/11 10:49:04;;;;;;;35.00;18.65;;;;;;;;;;5081158;28;20102;-71
2024/03/11 10:51:55;;;;;;;23.05;12.48;;;;;;;;;;5081550;28;20106;-71
2024/03/11 10:54:47;;;;;;;26.95;10.75;;;;;;;;;;5081954;28;20024;-71
2024/03/11 10:57:33;;;;;;;28.30;10.27;;;;;;;;;;5069383;28;20032;-71
2024/03/11 11:00:23;;;;;;;24.45;10.93;;;;;;;;;;5084540;28;20662;-71
2024/03/11 11:03:12;;;;;;;21.85;9.75;;;;;;;;;;5093536;28;20456;-71
2024/03/11 11:06:00;;;;;;;25.05;10.88;;;;;;;;;;5080139;28;20024;-71
2024/03/11 11:08:48;;;;;;;27.70;11.27;;;;;;;;;;5080013;28;20024;-71
2024/03/11 11:11:35;;;;;;;18.15;9.55;;;;;;;;;;5079411;28;20024;-71
2024/03/11 11:14:24;;;;;;;24.17;11.57;;;;;;;;;;5080315;28;20020;-71
2024/03/11 11:17:10;;;;;;;27.83;10.70;;;;;;;;;;5094795;28;20031;-71
2024/03/11 11:19:57;;;;;;;19.92;10.07;;;;;;;;;;5080124;23;20425;-67
2024/03/11 11:22:43;;;;;;;21.73;10.57;;;;;;;;;;5059353;28;20112;-67
2024/03/11 11:25:42;;;;;;;24.55;10.57;;;;;;;;;;5074063;28;20016;-67
2024/03/11 11:28:29;;;;;;;27.10;10.57;;;;;;;;;;5060250;28;20029;-67
2024/03/11 11:31:26;;;;;;;19.77;9.05;;;;;;;;;;5073246;28;20505;-67
2024/03/11 11:34:14;;;;;;;20.88;8.77;;;;;;;;;;5054807;28;20027;-68
2024/03/11 11:37:02;;;;;;;21.58;7.95;;;;;;;;;;5034418;28;20455;-67
2024/03/11 11:39:50;;;;;;;19.60;8.70;;;;;;;;;;5034029;28;20033;-67
2024/03/11 11:42:37;;;;;;;18.08;8.73;;;;;;;;;;5030867;28;20103;-67
2024/03/11 11:45:54;;;;;;;21.75;10.07;;;;;;;;;;5040446;28;20021;-67
2024/03/11 11:48:40;;;;;;;17.95;9.32;;;;;;;;;;5053698;28;20517;-67
2024/03/11 11:51:25;;;;;;;18.25;8.98;;;;;;;;;;5054489;28;20029;-68
2024/03/11 11:54:25;;;;;;;24.17;9.80;;;;;;;;;;5037607;28;20594;-67
2024/03/11 11:57:15;;;;;;;20.75;9.35;;;;;;;;;;5054195;28;20098;-67
2024/03/11 12:00:13;;;;;;;22.05;9.50;;;;;;;;;;5038266;28;20025;-67
2024/03/11 12:02:58;;;;;;;23.77;9.00;;;;;;;;;;5054098;28;20029;-67
2024/03/11 12:05:44;;;;;;;23.77;9.25;;;;;;;;;;5054714;28;20032;-67
2024/03/11 12:08:32;;;;;;;20.05;9.00;;;;;;;;;;5053457;28;20029;-67
2024/03/11 12:11:21;;;;;;;20.50;8.35;;;;;;;;;;5052003;28;20024;-67
2024/03/11 12:14:09;;;;;;;22.25;7.68;;;;;;;;;;5057546;28;20033;-67
2024/03/11 12:17:03;;;;;;;17.17;8.50;;;;;;;;;;5039516;28;20020;-68
2024/03/11 12:20:30;;;;;;;21.23;9.30;;;;;;;;;;5054677;28;20032;-67
2024/03/11 12:23:17;;;;;;;17.30;9.00;;;;;;;;;;5054729;28;20060;-67
2024/03/11 12:26:03;;;;;;;19.75;8.38;;;;;;;;;;5057147;28;20025;-67
2024/03/11 12:29:19;;;;;;;18.25;7.78;;;;;;;;;;5054495;28;20025;-67
2024/03/11 12:32:11;;;;;;;16.08;7.75;;;;;;;;;;5051172;28;20025;-66
2024/03/11 12:34:58;;;;;;;24.20;8.43;;;;;;;;;;5045387;28;20028;-67
2024/03/11 12:37:43;;;;;;;13.05;7.15;;;;;;;;;;5046532;28;20025;-67
2024/03/11 12:40:34;;;;;;;22.45;8.43;;;;;;;;;;5039753;28;20016;-67
2024/03/11 12:43:29;;;;;;;22.52;8.82;;;;;;;;;;5035056;28;20037;-68
2024/03/11 12:46:17;;;;;;;17.00;7.80;;;;;;;;;;5041485;28;20032;-67
2024/03/11 12:49:04;;;;;;;20.27;9.70;;;;;;;;;;5037315;28;20064;-68
2024/03/11 12:52:08;;;;;;;22.92;9.55;;;;;;;;;;5043116;28;20103;-67
2024/03/11 12:55:05;;;;;;;21.35;8.48;;;;;;;;;;5052864;28;20032;-67
2024/03/11 12:58:02;;;;;;;23.20;8.30;;;;;;;;;;5048166;28;20036;-68
2024/03/11 13:01:01;;;;;;;;;;;;;;;;;;5050793;28;20108;-68
2024/03/11 13:03:47;;;;;;;19.77;9.23;;;;;;;;;;5038162;28;20291;-68
2024/03/11 13:06:33;;;;;;;20.40;8.93;;;;;;;;;;5056924;28;20025;-67
2024/03/11 13:09:24;;;;;;;18.42;9.18;;;;;;;;;;5038460;28;20443;-67
2024/03/11 13:12:17;;;;;;;22.80;9.15;;;;;;;;;;5035256;28;20083;-67
2024/03/11 13:15:05;;;;;;;24.42;9.50;;;;;;;;;;5053074;28;20071;-67
2024/03/11 13:17:50;;;;;;;18.48;8.57;;;;;;;;;;5051780;28;20021;-67
2024/03/11 13:20:39;;;;;;;19.20;9.00;;;;;;;;;;5032853;28;20487;-67
2024/03/11 13:23:25;;;;;;;21.13;9.48;;;;;;;;;;5050539;28;20501;-67
2024/03/11 13:26:15;;;;;;;19.98;8.70;;;;;;;;;;5051863;28;20032;-67
2024/03/11 13:29:02;;;;;;;20.00;8.25;;;;;;;;;;5038820;28;20094;-67
2024/03/11 13:31:48;;;;;;;23.27;9.18;;;;;;;;;;5042743;28;20368;-67
2024/03/11 13:34:35;;;;;;;22.02;9.35;;;;;;;;;;5058487;28;20439;-67
2024/03/11 13:37:20;;;;;;;19.27;9.02;;;;;;;;;;5051563;28;20033;-67
2024/03/11 13:40:07;;;;;;;26.20;10.50;;;;;;;;;;5053924;28;20119;-67
2024/03/11 13:42:52;;;;;;;23.73;10.05;;;;;;;;;;5053858;28;20446;-67
2024/03/11 13:45:40;;;;;;;18.10;9.60;;;;;;;;;;5063681;28;20021;-67
2024/03/11 13:48:27;;;;;;;27.02;10.18;;;;;;;;;;5071936;28;20024;-67
2024/03/11 13:51:15;;;;;;;24.55;10.07;;;;;;;;;;5054829;28;20024;-67
2024/03/11 13:54:03;;;;;;;19.65;8.88;;;;;;;;;;5052784;28;20433;-67
2024/03/11 13:56:53;;;;;;;24.48;9.43;;;;;;;;;;5058769;28;20077;-67
2024/03/11 13:59:39;;;;;;;19.70;9.85;;;;;;;;;;5059444;28;20059;-66
2024/03/11 14:02:25;;;;;;;25.45;9.52;;;;;;;;;;5052435;28;20021;-67
2024/03/11 14:05:14;;;;;;;26.95;9.95;;;;;;;;;;5052185;28;20025;-67
2024/03/11 14:07:59;;;;;;;21.73;9.55;;;;;;;;;;5051719;28;20020;-67
2024/03/11 14:10:48;;;;;;;20.90;9.02;;;;;;;;;;5056249;28;20450;-67
2024/03/11 14:13:33;;;;;;;26.73;10.48;;;;;;;;;;5055185;28;20059;-67
2024/03/11 14:16:19;;;;;;;23.10;8.88;;;;;;;;;;5056130;28;20086;-67
2024/03/11 14:19:06;;;;;;;24.25;9.05;;;;;;;;;;5055659;28;20033;-67
2024/03/11 14:21:52;;;;;;;25.02;10.20;;;;;;;;;;5054832;28;20025;-67
2024/03/11 14:24:38;;;;;;;21.10;8.88;;;;;;;;;;5061356;28;20048;-67
2024/03/11 14:27:24;;;;;;;28.73;11.00;;;;;;;;;;5074686;28;20028;-66
2024/03/11 14:30:14;;;;;;;20.00;9.45;;;;;;;;;;5058468;28;20086;-67
2024/03/11 14:33:01;;;;;;;16.58;8.00;;;;;;;;;;5055398;28;20029;-67
2024/03/11 14:35:47;;;;;;;22.63;9.95;;;;;;;;;;5054912;28;20032;-67
2024/03/11 14:38:33;;;;;;;20.65;9.70;;;;;;;;;;5056233;28;20029;-67
2024/03/11 14:41:19;;;;;;;17.88;8.52;;;;;;;;;;5054930;28;20029;-67
2024/03/11 14:44:06;;;;;;;24.55;9.15;;;;;;;;;;5058247;28;20029;-67
2024/03/11 14:46:52;;;;;;;24.50;9.50;;;;;;;;;;5075770;28;20078;-67
2024/03/11 14:49:38;;;;;;;16.50;9.02;;;;;;;;;;5073474;28;20028;-67
2024/03/11 14:52:25;;;;;;;23.77;9.00;;;;;;;;;;5075817;28;20123;-67
2024/03/11 14:55:11;;;;;;;28.17;9.75;;;;;;;;;;5073777;28;20074;-67
2024/03/11 14:57:56;;;;;;;19.80;9.20;;;;;;;;;;5056991;28;20037;-66
2024/03/11 15:00:48;;;;;;;21.30;9.73;;;;;;;;;;5060027;28;20445;-67
2024/03/11 15:03:37;;;;;;;20.67;9.20;;;;;;;;;;5054250;28;20035;-67
2024/03/11 15:06:26;;;;;;;25.50;10.10;;;;;;;;;;5055109;28;20068;-67
2024/03/11 15:09:17;;;;;;;26.38;10.00;;;;;;;;;;5054321;28;20025;-67
2024/03/11 15:12:03;;;;;;;26.85;9.82;;;;;;;;;;5054175;28;20025;-67
2024/03/11 15:14:49;;;;;;;31.58;11.38;;;;;;;;;;5054776;28;20025;-67
2024/03/11 15:17:35;;;;;;;22.08;9.88;;;;;;;;;;5055285;28;20028;-67
2024/03/11 15:20:21;;;;;;;21.33;9.65;;;;;;;;;;5052912;28;20025;-67
2024/03/11 15:23:07;;;;;;;25.75;9.70;;;;;;;;;;5054455;28;20134;-67
2024/03/11 15:25:53;;;;;;;22.80;9.38;;;;;;;;;;5055793;28;20044;-67
2024/03/11 15:28:39;;;;;;;28.23;9.95;;;;;;;;;;5054183;28;20032;-67
2024/03/11 15:31:28;;;;;;;22.75;10.65;;;;;;;;;;5054687;28;20436;-67
2024/03/11 15:34:14;;;;;;;26.98;11.38;;;;;;;;;;5040624;28;20017;-67
2024/03/11 15:37:00;;;;;;;27.23;10.75;;;;;;;;;;5055260;28;20029;-67
2024/03/11 15:39:47;;;;;;;24.23;9.05;;;;;;;;;;5053602;28;20501;-67
2024/03/11 15:42:34;;;;;;;28.02;10.75;;;;;;;;;;5054573;28;20081;-67
2024/03/11 15:45:21;;;;;;;36.13;10.45;;;;;;;;;;5054169;28;20049;-67
2024/03/11 15:48:07;;;;;;;26.52;8.88;;;;;;;;;;5053674;28;20106;-67
2024/03/11 15:50:53;;;;;;;26.25;10.43;;;;;;;;;;5054922;28;20100;-67
2024/03/11 15:53:40;;;;;;;27.55;10.48;;;;;;;;;;5053977;28;20025;-67
2024/03/11 15:56:26;;;;;;;22.55;10.45;;;;;;;;;;5054270;28;20017;-67
2024/03/11 15:59:12;;;;;;;22.65;10.98;;;;;;;;;;5053754;28;20025;-67
2024/03/11 16:01:59;;;;;;;31.48;11.02;;;;;;;;;;5053766;28;20079;-67
2024/03/11 16:04:44;;;;;;;21.92;10.10;;;;;;;;;;5053754;28;20021;-67
2024/03/11 16:07:32;;;;;;;26.45;9.93;;;;;;;;;;5053560;28;20035;-67
2024/03/11 16:10:19;;;;;;;28.15;9.82;;;;;;;;;;5040133;28;20501;-67
2024/03/11 16:13:04;;;;;;;22.80;10.70;;;;;;;;;;5053396;28;20032;-67
2024/03/11 16:15:51;;;;;;;23.38;9.70;;;;;;;;;;5055022;28;20100;-67
2024/03/11 16:18:37;;;;;;;22.77;10.90;;;;;;;;;;5053219;28;20525;-67
2024/03/11 16:21:23;;;;;;;19.15;9.13;;;;;;;;;;5053497;28;20017;-67